createdAt,value
2019-04-06T00:01:30.908Z,10.30
2019-04-06T00:04:28.073Z,10.30
2019-04-06T00:07:24.820Z,10.30
2019-04-06T00:10:21.425Z,10.30
2019-04-06T00:13:18.806Z,10.30
2019-04-06T00:16:15.798Z,10.20
2019-04-06T00:19:12.668Z,10.10
2019-04-06T00:22:09.275Z,10.10
2019-04-06T00:25:08.818Z,10.00
2019-04-06T00:28:05.239Z,10.00
2019-04-06T00:31:34.029Z,9.90
2019-04-06T00:34:31.243Z,9.80
2019-04-06T00:37:27.885Z,9.70
2019-04-06T00:40:24.550Z,9.60
2019-04-06T00:43:21.357Z,9.60
2019-04-06T00:46:18.471Z,9.60
2019-04-06T00:49:15.110Z,9.50
2019-04-06T00:52:11.021Z,9.50
2019-04-06T00:55:08.020Z,9.50
2019-04-06T00:58:03.686Z,9.50
2019-04-06T01:01:00.299Z,9.40
2019-04-06T01:03:57.689Z,9.40
2019-04-06T01:06:54.243Z,9.30
2019-04-06T01:09:50.678Z,9.20
2019-04-06T01:12:47.749Z,9.10
2019-04-06T01:15:43.989Z,9.00
2019-04-06T01:18:40.749Z,9.00
2019-04-06T01:21:36.466Z,9.10
2019-04-06T01:24:32.727Z,9.00
2019-04-06T01:27:29.566Z,9.10
2019-04-06T01:30:26.218Z,9.00
2019-04-06T01:33:23.259Z,8.90
2019-04-06T01:36:19.379Z,9.10
2019-04-06T01:39:16.425Z,9.10
2019-04-06T01:42:12.539Z,9.20
2019-04-06T01:45:09.230Z,9.20
2019-04-06T01:48:06.011Z,9.20
2019-04-06T01:51:02.644Z,9.10
2019-04-06T01:53:59.077Z,9.00
2019-04-06T01:56:54.931Z,8.90
2019-04-06T01:59:50.637Z,8.90
2019-04-06T02:02:49.392Z,8.90
2019-04-06T02:05:46.301Z,8.90
2019-04-06T02:08:42.942Z,8.90
2019-04-06T02:11:39.576Z,8.80
2019-04-06T02:14:37.305Z,8.80
2019-04-06T02:17:33.194Z,8.80
2019-04-06T02:20:30.211Z,8.80
2019-04-06T02:23:26.836Z,8.90
2019-04-06T02:26:30.125Z,8.90
2019-04-06T02:29:22.238Z,8.90
2019-04-06T02:32:46.368Z,8.80
2019-04-06T02:35:47.311Z,8.90
2019-04-06T02:39:01.771Z,8.90
2019-04-06T02:42:07.033Z,9.00
2019-04-06T02:45:04.157Z,9.00
2019-04-06T02:48:00.161Z,9.00
2019-04-06T02:50:57.488Z,8.90
2019-04-06T02:53:53.994Z,8.90
2019-04-06T02:56:50.533Z,8.90
2019-04-06T02:59:47.037Z,8.90
2019-04-06T03:02:44.228Z,8.80
2019-04-06T03:05:41.598Z,8.70
2019-04-06T03:08:37.357Z,8.60
2019-04-06T03:11:34.084Z,8.60
2019-04-06T03:14:31.473Z,8.50
2019-04-06T03:17:27.475Z,8.40
2019-04-06T03:20:25.359Z,8.40
2019-04-06T03:23:24.279Z,8.40
2019-04-06T03:26:18.895Z,8.40
2019-04-06T03:29:16.010Z,8.40
2019-04-06T03:32:12.850Z,8.50
2019-04-06T03:35:11.748Z,8.40
2019-04-06T03:38:08.442Z,8.40
2019-04-06T03:41:06.843Z,8.40
2019-04-06T03:44:04.208Z,8.60
2019-04-06T03:47:01.309Z,8.60
2019-04-06T03:49:58.597Z,8.70
2019-04-06T03:52:55.301Z,8.70
2019-04-06T03:55:51.343Z,8.70
2019-04-06T03:58:48.092Z,8.60
2019-04-06T04:01:45.205Z,8.60
2019-04-06T04:04:42.923Z,8.60
2019-04-06T04:07:39.014Z,8.50
2019-04-06T04:10:37.199Z,8.50
2019-04-06T04:13:33.327Z,8.50
2019-04-06T04:16:29.929Z,8.50
2019-04-06T04:19:26.519Z,8.40
2019-04-06T04:22:23.411Z,8.50
2019-04-06T04:25:21.357Z,8.40
2019-04-06T04:28:17.697Z,8.50
2019-04-06T04:31:14.007Z,8.50
2019-04-06T04:34:10.290Z,8.40
2019-04-06T04:37:06.238Z,8.40
2019-04-06T04:40:03.100Z,8.30
2019-04-06T04:42:59.330Z,8.20
2019-04-06T04:45:56.391Z,8.20
2019-04-06T04:48:53.446Z,8.10
2019-04-06T04:51:50.206Z,8.10
2019-04-06T04:54:46.095Z,8.20
2019-04-06T04:57:44.981Z,8.20
2019-04-06T05:00:40.078Z,8.20
2019-04-06T05:03:35.871Z,8.10
2019-04-06T05:06:33.229Z,8.10
2019-04-06T05:09:29.000Z,8.20
2019-04-06T05:12:25.599Z,8.20
2019-04-06T05:16:09.182Z,8.30
2019-04-06T05:19:05.908Z,8.30
2019-04-06T05:22:02.887Z,8.40
2019-04-06T05:24:59.541Z,8.40
2019-04-06T05:27:56.361Z,8.50
2019-04-06T05:30:52.496Z,8.90
2019-04-06T05:33:49.267Z,9.30
2019-04-06T05:36:45.449Z,9.50
2019-04-06T05:39:41.492Z,9.50
2019-04-06T05:42:38.110Z,9.60
2019-04-06T05:45:33.826Z,9.70
2019-04-06T05:48:30.630Z,9.80
2019-04-06T05:51:27.347Z,10.00
2019-04-06T05:54:24.318Z,9.90
2019-04-06T05:57:21.241Z,9.90
2019-04-06T06:00:18.163Z,10.00
2019-04-06T06:03:15.511Z,11.00
2019-04-06T06:06:13.027Z,10.50
2019-04-06T06:09:10.058Z,10.70
2019-04-06T06:12:07.048Z,10.90
2019-04-06T06:15:04.674Z,11.00
2019-04-06T06:18:00.892Z,11.50
2019-04-06T06:20:56.817Z,11.70
2019-04-06T06:23:52.949Z,12.00
2019-04-06T06:26:50.211Z,12.30
2019-04-06T06:29:46.168Z,12.50
2019-04-06T06:32:43.200Z,13.10
2019-04-06T06:35:39.231Z,13.40
2019-04-06T06:38:36.316Z,13.70
2019-04-06T06:41:32.856Z,14.20
2019-04-06T06:44:28.306Z,14.70
2019-04-06T06:47:28.273Z,15.20
2019-04-06T06:50:34.781Z,15.60
2019-04-06T06:53:32.656Z,15.80
2019-04-06T06:56:28.722Z,15.90
2019-04-06T06:59:25.682Z,16.20
2019-04-06T07:02:22.139Z,16.60
2019-04-06T07:05:18.562Z,16.90
2019-04-06T07:08:15.089Z,17.50
2019-04-06T07:11:11.457Z,18.10
2019-04-06T07:14:08.414Z,18.30
2019-04-06T07:17:05.384Z,18.40
2019-04-06T07:20:00.883Z,19.20
2019-04-06T07:22:57.436Z,19.30
2019-04-06T07:25:58.630Z,19.20
2019-04-06T07:28:51.497Z,20.30
2019-04-06T07:31:48.159Z,20.60
2019-04-06T07:34:44.088Z,20.70
2019-04-06T07:37:41.271Z,21.00
2019-04-06T07:40:37.708Z,21.80
2019-04-06T07:43:34.351Z,22.50
2019-04-06T07:46:31.685Z,22.70
2019-04-06T07:49:27.358Z,23.20
2019-04-06T07:52:24.969Z,23.70
2019-04-06T07:55:21.920Z,24.00
2019-04-06T07:58:17.414Z,24.10
2019-04-06T08:01:13.769Z,24.10
2019-04-06T08:04:10.358Z,24.60
2019-04-06T08:07:06.816Z,24.50
2019-04-06T08:10:02.254Z,23.90
2019-04-06T08:12:58.238Z,24.20
2019-04-06T08:15:54.399Z,24.70
2019-04-06T08:18:49.969Z,25.00
2019-04-06T08:21:46.598Z,25.80
2019-04-06T08:24:42.096Z,26.10
2019-04-06T08:27:38.967Z,26.00
2019-04-06T08:30:45.556Z,26.80
2019-04-06T08:33:33.377Z,27.30
2019-04-06T08:36:29.193Z,27.20
2019-04-06T08:39:25.810Z,27.30
2019-04-06T08:42:23.753Z,27.50
2019-04-06T08:45:20.603Z,27.60
2019-04-06T08:48:16.963Z,27.90
2019-04-06T08:51:12.949Z,27.70
2019-04-06T08:54:08.650Z,27.70
2019-04-06T08:57:04.603Z,27.10
2019-04-06T09:00:02.126Z,27.50
2019-04-06T09:02:58.943Z,28.00
2019-04-06T09:05:54.724Z,28.80
2019-04-06T09:08:50.388Z,28.70
2019-04-06T09:11:46.916Z,29.20
2019-04-06T09:14:42.497Z,29.80
2019-04-06T09:17:38.171Z,29.30
2019-04-06T09:20:34.269Z,29.20
2019-04-06T09:23:29.918Z,29.20
2019-04-06T09:26:26.049Z,29.30
2019-04-06T09:29:29.027Z,30.70
2019-04-06T09:32:24.815Z,31.40
2019-04-06T09:35:21.664Z,30.60
2019-04-06T09:38:20.357Z,30.60
2019-04-06T09:41:17.067Z,30.60
2019-04-06T09:44:30.054Z,30.00
2019-04-06T09:47:33.649Z,30.00
2019-04-06T09:50:39.740Z,30.60
2019-04-06T09:53:44.743Z,31.40
2019-04-06T09:56:50.890Z,31.20
2019-04-06T09:59:58.929Z,30.70
2019-04-06T10:03:08.217Z,30.50
2019-04-06T10:06:32.122Z,31.10
2019-04-06T10:09:38.314Z,32.20
2019-04-06T10:12:58.932Z,32.90
2019-04-06T10:16:14.643Z,33.30
2019-04-06T10:19:48.796Z,34.30
2019-04-06T10:23:03.497Z,34.00
2019-04-06T10:26:20.658Z,33.60
2019-04-06T10:29:23.366Z,33.80
2019-04-06T10:32:34.447Z,34.00
2019-04-06T10:35:46.794Z,34.10
2019-04-06T10:39:14.217Z,34.40
2019-04-06T10:42:29.796Z,34.60
2019-04-06T10:45:47.719Z,33.70
2019-04-06T10:48:54.207Z,32.30
2019-04-06T10:52:13.037Z,32.20
2019-04-06T10:55:20.127Z,31.90
2019-04-06T10:58:51.786Z,32.90
2019-04-06T11:02:09.624Z,33.90
2019-04-06T11:05:31.767Z,34.30
2019-04-06T11:08:34.270Z,34.70
2019-04-06T11:11:48.659Z,33.50
2019-04-06T11:15:00.304Z,33.40
2019-04-06T11:18:28.532Z,34.60
2019-04-06T11:21:58.348Z,33.90
2019-04-06T11:25:31.244Z,33.40
2019-04-06T11:28:48.746Z,33.90
2019-04-06T11:31:53.659Z,31.60
2019-04-06T11:34:57.973Z,29.50
2019-04-06T11:38:08.933Z,27.90
2019-04-06T11:41:24.212Z,28.90
2019-04-06T11:44:37.653Z,29.10
2019-04-06T11:47:41.644Z,30.70
2019-04-06T11:50:45.089Z,30.90
2019-04-06T11:53:49.999Z,31.10
2019-04-06T11:57:11.162Z,31.20
2019-04-06T12:00:26.064Z,31.60
2019-04-06T12:03:20.275Z,31.90
2019-04-06T12:06:21.621Z,31.10
2019-04-06T12:09:26.717Z,30.80
2019-04-06T12:12:41.001Z,30.90
2019-04-06T12:15:42.960Z,31.20
2019-04-06T12:18:48.200Z,32.20
2019-04-06T12:22:05.924Z,33.10
2019-04-06T12:25:37.021Z,33.40
2019-04-06T12:28:40.800Z,33.60
2019-04-06T12:31:59.163Z,32.70
2019-04-06T12:35:19.444Z,32.10
2019-04-06T12:38:25.212Z,31.30
2019-04-06T12:41:28.198Z,31.10
2019-04-06T12:44:42.066Z,31.70
2019-04-06T12:47:56.281Z,30.40
2019-04-06T12:51:09.735Z,29.70
2019-04-06T12:54:25.146Z,30.20
2019-04-06T12:57:39.460Z,30.50
2019-04-06T13:00:52.874Z,31.30
2019-04-06T13:03:55.192Z,29.80
2019-04-06T13:07:09.789Z,28.00
2019-04-06T13:10:41.156Z,26.70
2019-04-06T13:13:49.894Z,25.20
2019-04-06T13:17:06.318Z,24.10
2019-04-06T13:20:17.380Z,23.40
2019-04-06T13:23:33.495Z,23.00
2019-04-06T13:27:01.187Z,22.90
2019-04-06T13:30:15.509Z,22.90
2019-04-06T13:33:42.970Z,23.30
2019-04-06T13:36:51.128Z,23.50
2019-04-06T13:40:07.819Z,23.80
2019-04-06T13:43:28.948Z,25.00
2019-04-06T13:46:49.851Z,24.50
2019-04-06T13:50:05.748Z,24.40
2019-04-06T13:53:20.890Z,23.70
2019-04-06T13:56:42.935Z,23.40
2019-04-06T13:59:50.255Z,23.40
2019-04-06T14:03:08.061Z,23.60
2019-04-06T14:06:18.330Z,23.60
2019-04-06T14:09:32.489Z,23.80
2019-04-06T14:12:52.150Z,25.10
2019-04-06T14:16:11.085Z,26.50
2019-04-06T14:19:28.591Z,27.40
2019-04-06T14:22:36.915Z,26.30
2019-04-06T14:25:50.215Z,25.90
2019-04-06T14:28:55.853Z,26.20
2019-04-06T14:31:57.548Z,27.00
2019-04-06T14:35:17.263Z,26.00
2019-04-06T14:38:32.780Z,25.30
2019-04-06T14:41:53.381Z,25.00
2019-04-06T14:45:04.874Z,23.90
2019-04-06T14:48:17.822Z,22.90
2019-04-06T14:51:30.278Z,23.60
2019-04-06T14:54:54.637Z,23.20
2019-04-06T14:58:12.887Z,24.00
2019-04-06T15:01:24.163Z,24.10
2019-04-06T15:04:47.824Z,24.60
2019-04-06T15:07:56.987Z,24.70
2019-04-06T15:11:00.469Z,24.50
2019-04-06T15:14:13.163Z,24.60
2019-04-06T15:17:32.712Z,24.00
2019-04-06T15:20:45.324Z,23.90
2019-04-06T15:24:12.019Z,24.50
2019-04-06T15:27:33.534Z,24.90
2019-04-06T15:30:43.660Z,25.00
2019-04-06T15:33:58.057Z,24.20
2019-04-06T15:37:19.807Z,24.00
2019-04-06T15:40:34.284Z,23.90
2019-04-06T15:43:48.959Z,23.50
2019-04-06T15:47:08.180Z,22.70
2019-04-06T15:50:30.758Z,21.80
2019-04-06T15:53:43.283Z,21.20
2019-04-06T15:56:51.626Z,20.80
2019-04-06T16:00:05.494Z,20.60
2019-04-06T16:03:13.493Z,20.50
2019-04-06T16:06:31.229Z,20.50
2019-04-06T16:09:49.337Z,20.30
2019-04-06T16:13:05.216Z,20.10
2019-04-06T16:16:12.192Z,20.00
2019-04-06T16:19:45.603Z,19.90
2019-04-06T16:23:02.944Z,19.70
2019-04-06T16:26:14.641Z,19.50
2019-04-06T16:29:39.171Z,19.50
2019-04-06T16:32:45.017Z,19.40
2019-04-06T16:36:06.040Z,19.30
2019-04-06T16:39:19.881Z,19.20
2019-04-06T16:42:41.469Z,19.00
2019-04-06T16:45:48.878Z,18.70
2019-04-06T16:49:04.471Z,18.30
2019-04-06T16:52:18.520Z,18.10
2019-04-06T16:55:25.230Z,17.80
2019-04-06T16:58:29.103Z,17.60
2019-04-06T17:01:37.418Z,17.40
2019-04-06T17:04:55.814Z,17.30
2019-04-06T17:07:56.585Z,17.20
2019-04-06T17:11:11.139Z,16.90
2019-04-06T17:14:24.924Z,16.70
2019-04-06T17:17:32.891Z,16.60
2019-04-06T17:20:39.605Z,16.50
2019-04-06T17:23:42.001Z,16.30
2019-04-06T17:26:55.935Z,16.30
2019-04-06T17:29:59.928Z,16.30
2019-04-06T17:33:09.075Z,16.20
2019-04-06T17:36:23.528Z,16.10
2019-04-06T17:39:39.121Z,16.10
2019-04-06T17:43:06.363Z,16.00
2019-04-06T17:46:24.517Z,15.90
2019-04-06T17:49:52.050Z,15.70
2019-04-06T17:53:05.183Z,15.70
2019-04-06T17:56:15.968Z,15.70
2019-04-06T17:59:30.698Z,15.60
2019-04-06T18:02:48.679Z,15.60
2019-04-06T18:05:54.557Z,15.50
2019-04-06T18:09:18.184Z,15.50
2019-04-06T18:12:32.408Z,15.50
2019-04-06T18:15:32.474Z,15.50
2019-04-06T18:18:28.401Z,15.50
2019-04-06T18:21:24.514Z,15.40
2019-04-06T18:24:21.588Z,15.40
2019-04-06T18:27:17.246Z,15.30
2019-04-06T18:30:32.790Z,15.20
2019-04-06T18:33:29.320Z,15.20
2019-04-06T18:36:30.993Z,15.10
2019-04-06T18:39:27.773Z,15.00
2019-04-06T18:42:25.219Z,14.90
2019-04-06T18:45:21.972Z,14.80
2019-04-06T18:48:19.278Z,14.80
2019-04-06T18:51:15.649Z,14.80
2019-04-06T18:54:12.502Z,14.70
2019-04-06T18:57:09.274Z,14.60
2019-04-06T19:00:07.897Z,14.50
2019-04-06T19:03:14.108Z,14.50
2019-04-06T19:06:03.554Z,14.40
2019-04-06T19:08:59.611Z,14.40
2019-04-06T19:11:57.199Z,14.30
2019-04-06T19:14:53.510Z,14.20
2019-04-06T19:17:50.076Z,14.20
2019-04-06T19:20:47.358Z,14.10
2019-04-06T19:23:44.655Z,14.00
2019-04-06T19:26:41.586Z,14.00
2019-04-06T19:29:37.611Z,13.90
2019-04-06T19:32:33.558Z,13.80
2019-04-06T19:35:29.383Z,13.80
2019-04-06T19:38:27.316Z,13.70
2019-04-06T19:41:24.036Z,13.60
2019-04-06T19:44:20.947Z,13.60
2019-04-06T19:47:17.668Z,13.50
2019-04-06T19:50:15.284Z,13.50
2019-04-06T19:53:12.408Z,13.40
2019-04-06T19:56:08.708Z,13.30
2019-04-06T19:59:05.276Z,13.30
2019-04-06T20:02:01.962Z,13.20
2019-04-06T20:04:58.118Z,13.20
2019-04-06T20:07:54.331Z,13.20
2019-04-06T20:10:51.319Z,13.10
2019-04-06T20:13:46.843Z,13.00
2019-04-06T20:16:45.248Z,12.90
2019-04-06T20:19:41.699Z,12.90
2019-04-06T20:22:38.537Z,12.90
2019-04-06T20:25:34.591Z,12.80
2019-04-06T20:28:31.101Z,12.80
2019-04-06T20:31:27.250Z,12.80
2019-04-06T20:34:23.038Z,12.70
2019-04-06T20:37:19.361Z,12.70
2019-04-06T20:40:16.918Z,12.60
2019-04-06T20:43:13.717Z,12.50
2019-04-06T20:46:10.720Z,12.50
2019-04-06T20:49:09.187Z,12.50
2019-04-06T20:52:07.255Z,12.40
2019-04-06T20:55:03.627Z,12.40
2019-04-06T20:57:59.946Z,12.30
2019-04-06T21:00:58.136Z,12.20
2019-04-06T21:04:01.094Z,12.20
2019-04-06T21:06:52.823Z,12.20
2019-04-06T21:09:49.394Z,12.20
2019-04-06T21:12:45.662Z,12.10
2019-04-06T21:15:43.452Z,12.10
2019-04-06T21:18:39.367Z,12.10
2019-04-06T21:21:35.436Z,12.00
2019-04-06T21:24:31.742Z,12.10
2019-04-06T21:27:28.918Z,12.00
2019-04-06T21:30:25.745Z,12.00
2019-04-06T21:33:22.320Z,11.90
2019-04-06T21:36:19.268Z,11.90
2019-04-06T21:39:16.408Z,11.80
2019-04-06T21:42:12.924Z,11.80
2019-04-06T21:45:09.455Z,11.70
2019-04-06T21:48:05.835Z,11.70
2019-04-06T21:51:02.932Z,11.60
2019-04-06T21:54:00.081Z,11.60
2019-04-06T21:56:56.041Z,11.60
2019-04-06T21:59:51.860Z,11.50
2019-04-06T22:02:48.962Z,11.50
2019-04-06T22:05:45.576Z,11.50
2019-04-06T22:08:42.986Z,11.50
2019-04-06T22:11:39.814Z,11.40
2019-04-06T22:14:36.031Z,11.40
2019-04-06T22:17:34.239Z,11.30
2019-04-06T22:20:30.854Z,11.20
2019-04-06T22:23:38.739Z,11.20
2019-04-06T22:26:24.782Z,11.20
2019-04-06T22:29:22.172Z,11.10
2019-04-06T22:32:18.135Z,11.10
2019-04-06T22:35:14.865Z,10.80
2019-04-06T22:38:12.150Z,10.70
2019-04-06T22:41:08.310Z,10.60
2019-04-06T22:44:05.819Z,10.60
2019-04-06T22:47:03.555Z,10.70
2019-04-06T22:50:00.494Z,10.60
2019-04-06T22:52:56.435Z,10.70
2019-04-06T22:55:55.181Z,10.70
2019-04-06T22:58:52.569Z,10.60
2019-04-06T23:01:49.467Z,10.50
2019-04-06T23:04:57.710Z,10.50
2019-04-06T23:07:53.700Z,10.30
2019-04-06T23:10:50.357Z,10.20
2019-04-06T23:13:50.367Z,10.10
2019-04-06T23:16:47.576Z,10.10
2019-04-06T23:19:46.251Z,10.00
2019-04-06T23:22:43.724Z,10.00
2019-04-06T23:25:39.873Z,10.00
2019-04-06T23:28:35.846Z,9.90
2019-04-06T23:31:32.570Z,9.90
2019-04-06T23:34:28.684Z,9.80
2019-04-06T23:37:24.547Z,9.80
2019-04-06T23:40:21.818Z,9.70
2019-04-06T23:43:18.704Z,9.70
2019-04-06T23:46:16.923Z,9.70
2019-04-06T23:49:14.000Z,9.60
2019-04-06T23:52:14.503Z,9.50
2019-04-06T23:55:11.961Z,9.50
2019-04-06T23:58:11.051Z,9.40
